AirNav   Everest Fuels
 
 1037 users online  

3UT9 Little Sahara Medical Helipad #2 Heliport
Little Sahara Recreation Area, Utah, USA

GOING TO LITTLE SAHARA RECREATION AREA?


FAA INFORMATION EFFECTIVE 21 MAY 2020

Location

FAA Identifier: 3UT9
Lat/Long: 39-40-22.7900N 112-21-17.3500W
39-40.379833N 112-21.289167W
39.6729972,-112.3548194
(estimated)
Elevation: 4957 ft. / 1511 m
Time zone: UTC -6 (UTC -7 during Standard Time)
Zip code: 84624

Heliport Operations

Heliport use: Private use. Permission required prior to landing
Activation date: 02/2015
Control tower: no
ARTCC: SALT LAKE CITY CENTER
FSS: CEDAR CITY FLIGHT SERVICE STATION
Attendance: 
Wind indicator: yes
Segmented circle: no

Heliport Communications

WX AWOS-3 at DTA (19 nm S): 127.75 (435-864-4241)

Nearby radio navigation aids

VOR radial/distance  VOR name  Freq  Var
DTAr001/23.3DELTA VORTAC116.1016E

Heliport Services

Runway Information

Helipad H1

Dimensions: 50 x 50 ft. / 15 x 15 m
Surface: concrete
Runway edge lights: low intensity
Traffic pattern: leftleft

Heliport Ownership and Management from official FAA records

Ownership: Privately-owned
Owner: US BUREAU OF LAND MANAGEMENT
95 EAST 500 NORTH
FILLMORE, UT 84631
Phone 435-743-3100
Manager: MICHAEL GATES
95 EAST 500 NORTH
FILLMORE, UT 84631
Phone 435-743-3100
OUTDOOR RECREATION PLANNER FOR LITTLE SAHARA - 435-743-3124 BLM_UT_LITTLESAHARA@BLM.GOV

Additional Remarks

FOR CD CTC SALT LAKE ARTCC AT 801-320-2568.

Instrument Procedures

There are no published instrument procedures at 3UT9.

Some nearby airports with instrument procedures:

KDTA - Delta Municipal Airport (19 nm S)
U14 - Nephi Municipal Airport (23 nm E)
41U - Manti-Ephraim Airport (40 nm SE)
KDPG - Michael Army Airfield (Dugway Proving Ground) (41 nm NW)
KSPK - Spanish Fork Airport Springville-Woodhouse Field (42 nm NE)
 
Loc | Ops | Rwys | IFR | FBO | Links
Com | Nav | Svcs | Stats | Notes
Aerial photo
No photo
 
Airport distance calculator
Flying to Little Sahara Medical Helipad #2 Heliport? Find the distance to fly.

From to 3UT9

Sunrise and sunset
Times for 06-Jun-2020
 Local
(UTC-6)
 Zulu
(UTC)
Morning civil twilight05:3011:30
Sunrise06:0312:03
Sunset20:5402:54
Evening civil twilight21:2603:26

Current date and time
Zulu (UTC)  06-Jun-2020 15:39:48
Local (UTC-6)  06-Jun-2020 09:39:48
 
METAR
KDTA 
23nm S 
061515Z AUTO 18015KT 10SM CLR 23/02 A2970 RMK AO1
K41U 
40nm SE 
061515Z AUTO 02006KT 10SM CLR 14/12 A2979 RMK AO1 T01400121
KPVU 
44nm NE 
061456Z 15021G24KT 10SM FEW150 BKN210 18/10 A2974 RMK AO2 SLP011 60006 T01780100 58027
TAF
KPVU 
44nm NE 
061340Z 0614/0712 16012G20KT P6SM VCSH SCT060 BKN100 FM061900 32015G25KT P6SM VCTS SCT040 BKN080CB FM070000 15010KT P6SM -SHRA SCT040 BKN080 FM070600 15010KT P6SM VCSH SCT060 BKN120
NOTAMs
Click for the latest NOTAMs
NOTAMs are issued by the DoD/FAA and will open in a separate window not controlled by AirNav.

 

 
 

Would you like to see your business listed on this page?

 If your business provides an interesting product or service to pilots, flight crews, aircraft, or users of the Little Sahara Medical Helipad #2 Heliport, you should consider listing it here.  To start the listing process, click on the button below
 
Add a business
 

Other Pages about Little Sahara Medical Helipad #2 Heliport

Update a link
 
Copyright © AirNav, LLC. All rights reserved. Privacy Policy  Contact